Portada
METAR-TAF:

METAR-TAF

Aeroports :

Al-Kuwait, Kuwait

latitud: 29-13N, longitud: 047-59E, altitud: 55 m

Observació

L'informe es va fer fa 22 minuts, a les 10:00 UTC
Vent 6 kt del Nord
Temperatura 22°C
Humitat 41%
Pressió 1016 hPa
Visibilitat 10 km o més
sense núvols per sota de 1500 mi sense presència de cumulonimbus.

METAR: OKBK 211000Z 35006KT CAVOK 22/08 Q1016 NOSIG

Hora: 13:22 (10:22 UTC)

Pronòstic

L'informe es va fer fa 5 hores i 37 minuts, a les 04:45 UTC
Pronòstic vàlid del 21 a les 06 UTC al 22 a les 12 UTC
Vent 10 kt del Nord/Nord-Oest
Visibilitat: 7000 m
Temporalment
l' 21 a les 06 UTC al 21 a les 22 UTC
Vent 3 kt amb direcció variable

TAF: OKBK 210445Z 2106/2212 33010KT 7000 NSC TEMPO 2106/2122 VRB03KT

Observacions i pronòstics meteorològics de més de 4000 aeroports (METAR i TAF).

Les estacions disponibles són els punts grocs i vermells al mapa.

Posi el ratolí al punt desitjat per veure el nom de l'estació.

Feu clic per veure les observacions i els pronòstics meteorològics.

Per canviar el mapa: feu clic els botons verds amb una creu de color negre per apropar; al botó verd amb un guió per allunyar la imatge; o en les fletxes verdes per a mapes adjacents.


METAR-TAF: